Auburn, MS

1:56 PM CST on November 23, 2014 (GMT -0600)
Laurel St. | Change Station
CLOSE
Current Station
Personal Weather Station
Location: Summit, MS
Elevation: 465 ft
Nearby Weather Stations

Elev 465 ft 31.29 °N, 90.47 °W | Updated 12 minutes ago

Overcast
Overcast
68.3 °F
Feels Like 68.3 °F
N
5.0
Wind Variable Wind from SSE
Gusts 10.0 mph

Today
High -- | Low -- °F
--% Chance of Precip.
Yesterday
High -- | Low -- °F
Precip. -- in
6:37 AM 5:00 PM
New Moon, 2% visible
Pressure 29.58 in
Visibility 10.0 miles
Clouds Scattered Clouds 2200 ft
Mostly Cloudy 2700 ft
Overcast 4100 ft
Dew Point 62 °F
Humidity 80%
Rainfall 0.20 in
Snow Depth Not available.
UV 1 out of 12
Pollen .40 out of 12
Air Quality Not available.
Flu Activity Not available.
METAR KMCB 231853Z AUTO 21014G23KT 10SM SCT022 BKN027 OVC041 19/14 A2959 RMK AO2 SLP015 T01940144

More Conditions Fewer Conditions

Pressure 29.58 in
Visibility 10.0 miles
Clouds Scattered Clouds 2200 ft
Mostly Cloudy 2700 ft
Overcast 4100 ft
Dew Point 62 °F
Humidity 80%
Rainfall 0.20 in
Snow Depth Not available.
UV 1 out of 12
Pollen .40 out of 12
Air Quality Not available.
Flu Activity Not available.
METAR KMCB 231853Z AUTO 21014G23KT 10SM SCT022 BKN027 OVC041 19/14 A2959 RMK AO2 SLP015 T01940144

More Conditions Fewer Conditions

10-Day Weather Forecast

Almanac

Astronomy

Nov. 23, 2014 Rise Set
Actual Time
Civil Twilight
Nautical Twilight
Astronomical Twilight
Moon
Length of Visible Light
Length of Day
Tomorrow will be .
, % of the Moon is Illuminated

Today's Extremes

State Highs State Lows

Community

WunderPhotos

Upload Photos

1,773,161 photos uploaded!

WunderBlogs® & News

Nearby

Air Quality

  Air Quality AQ Index Pollutant
Not available.

Snow Depth

Station Depth Elevation

Earthquake Activity

City Distance Mag. Time & Date
Minimum magnitude displayed is 2.5.

Coastal Water Temperatures

Place Temperature

Nearby Weather Stations